Al Ahsa, Saudi Arabia
Current Conditions -  °F | °C
As of 7:00 PM on Wednesday 26 Nov 2014 (Local Time) from OEAH Reporting Station
Few Clouds Few Clouds  
Wind Chill: 70°   Ceiling: Unl
Heat Index: 70°   Visibility: 6mi
Dew Point: 55°   Wind: 10mph
Humidity: 60%   Direction: 360°N
Pressure: 30"   Gusts: NA
Location:  25.3°N, 49.48°E
Report Text: OEAH 261600Z 36009KT 9999 FEW040 21/13 Q1016 NOSIG
Loading
Personal Weather Stations






























Interactive Weather Map New forecast layout! Learn more

10-Day Weather Forecast

Advertisements
Track Severe Weather on mobile